sensor_id;sensor_type;location;lat;lon;timestamp;P1;durP1;ratioP1;P2;durP2;ratioP2
32693;SDS011;19084;44.716;10.218;2022-11-15T00:00:37;40.05;;;24.55;;
32693;SDS011;19084;44.716;10.218;2022-11-15T00:03:26;37.65;;;24.02;;
32693;SDS011;19084;44.716;10.218;2022-11-15T00:06:17;37.30;;;23.83;;
32693;SDS011;19084;44.716;10.218;2022-11-15T00:09:05;37.30;;;23.50;;
32693;SDS011;19084;44.716;10.218;2022-11-15T00:11:55;38.45;;;23.15;;
32693;SDS011;19084;44.716;10.218;2022-11-15T00:14:43;36.88;;;21.92;;
32693;SDS011;19084;44.716;10.218;2022-11-15T00:17:31;36.83;;;23.63;;
32693;SDS011;19084;44.716;10.218;2022-11-15T00:20:20;38.35;;;23.25;;
32693;SDS011;19084;44.716;10.218;2022-11-15T00:23:08;33.40;;;22.15;;
32693;SDS011;19084;44.716;10.218;2022-11-15T00:25:57;34.40;;;22.08;;
32693;SDS011;19084;44.716;10.218;2022-11-15T00:28:45;34.58;;;21.08;;
32693;SDS011;19084;44.716;10.218;2022-11-15T00:31:33;34.97;;;22.25;;
32693;SDS011;19084;44.716;10.218;2022-11-15T00:34:23;32.42;;;20.33;;
32693;SDS011;19084;44.716;10.218;2022-11-15T00:37:11;35.60;;;22.52;;
32693;SDS011;19084;44.716;10.218;2022-11-15T00:40:02;34.85;;;21.60;;
32693;SDS011;19084;44.716;10.218;2022-11-15T00:42:51;33.38;;;21.52;;
32693;SDS011;19084;44.716;10.218;2022-11-15T00:45:39;33.40;;;21.25;;
32693;SDS011;19084;44.716;10.218;2022-11-15T00:48:27;34.85;;;21.65;;
32693;SDS011;19084;44.716;10.218;2022-11-15T00:51:15;36.22;;;22.52;;
32693;SDS011;19084;44.716;10.218;2022-11-15T00:54:05;34.97;;;22.75;;
32693;SDS011;19084;44.716;10.218;2022-11-15T00:56:56;38.08;;;23.10;;
32693;SDS011;19084;44.716;10.218;2022-11-15T00:59:43;37.35;;;22.23;;
32693;SDS011;19084;44.716;10.218;2022-11-15T01:02:32;38.17;;;23.73;;
32693;SDS011;19084;44.716;10.218;2022-11-15T01:05:20;37.22;;;23.13;;
32693;SDS011;19084;44.716;10.218;2022-11-15T01:08:13;38.70;;;23.65;;
32693;SDS011;19084;44.716;10.218;2022-11-15T01:13:54;38.65;;;24.05;;
32693;SDS011;19084;44.716;10.218;2022-11-15T01:16:42;37.17;;;22.90;;
32693;SDS011;19084;44.716;10.218;2022-11-15T01:19:31;33.33;;;21.63;;
32693;SDS011;19084;44.716;10.218;2022-11-15T01:22:19;37.90;;;23.30;;
32693;SDS011;19084;44.716;10.218;2022-11-15T01:25:07;38.25;;;22.95;;
32693;SDS011;19084;44.716;10.218;2022-11-15T01:27:55;39.20;;;23.50;;
32693;SDS011;19084;44.716;10.218;2022-11-15T01:30:43;34.67;;;22.80;;
32693;SDS011;19084;44.716;10.218;2022-11-15T01:33:33;35.95;;;22.80;;
32693;SDS011;19084;44.716;10.218;2022-11-15T01:36:24;36.22;;;22.90;;
32693;SDS011;19084;44.716;10.218;2022-11-15T01:39:12;36.80;;;22.00;;
32693;SDS011;19084;44.716;10.218;2022-11-15T01:42:00;36.97;;;22.38;;
32693;SDS011;19084;44.716;10.218;2022-11-15T01:44:50;38.08;;;22.40;;
32693;SDS011;19084;44.716;10.218;2022-11-15T01:47:39;34.70;;;21.90;;
32693;SDS011;19084;44.716;10.218;2022-11-15T01:50:31;39.63;;;23.25;;
32693;SDS011;19084;44.716;10.218;2022-11-15T01:53:20;38.17;;;22.75;;
32693;SDS011;19084;44.716;10.218;2022-11-15T01:56:13;35.38;;;21.50;;
32693;SDS011;19084;44.716;10.218;2022-11-15T01:59:05;35.80;;;22.08;;
32693;SDS011;19084;44.716;10.218;2022-11-15T02:01:55;34.13;;;21.52;;
32693;SDS011;19084;44.716;10.218;2022-11-15T02:04:45;38.00;;;22.30;;
32693;SDS011;19084;44.716;10.218;2022-11-15T02:07:34;35.38;;;21.67;;
32693;SDS011;19084;44.716;10.218;2022-11-15T02:10:24;37.65;;;21.98;;
32693;SDS011;19084;44.716;10.218;2022-11-15T02:13:13;36.78;;;22.98;;
32693;SDS011;19084;44.716;10.218;2022-11-15T02:22:32;35.20;;;21.95;;
32693;SDS011;19084;44.716;10.218;2022-11-15T02:25:37;37.35;;;21.98;;
32693;SDS011;19084;44.716;10.218;2022-11-15T02:28:44;38.90;;;22.13;;
32693;SDS011;19084;44.716;10.218;2022-11-15T02:35:00;36.17;;;23.00;;
32693;SDS011;19084;44.716;10.218;2022-11-15T02:37:57;36.03;;;22.77;;
32693;SDS011;19084;44.716;10.218;2022-11-15T02:46:47;34.85;;;22.00;;
32693;SDS011;19084;44.716;10.218;2022-11-15T02:49:54;36.35;;;21.98;;
32693;SDS011;19084;44.716;10.218;2022-11-15T02:52:48;36.00;;;22.13;;
32693;SDS011;19084;44.716;10.218;2022-11-15T02:55:38;34.80;;;21.75;;
32693;SDS011;19084;44.716;10.218;2022-11-15T02:58:41;36.17;;;22.13;;
32693;SDS011;19084;44.716;10.218;2022-11-15T03:01:52;36.17;;;21.95;;
32693;SDS011;19084;44.716;10.218;2022-11-15T03:05:03;39.72;;;22.13;;
32693;SDS011;19084;44.716;10.218;2022-11-15T03:13:59;34.70;;;20.95;;
32693;SDS011;19084;44.716;10.218;2022-11-15T03:16:58;33.78;;;20.17;;
32693;SDS011;19084;44.716;10.218;2022-11-15T03:19:51;32.90;;;20.08;;
32693;SDS011;19084;44.716;10.218;2022-11-15T03:22:42;35.38;;;20.98;;
32693;SDS011;19084;44.716;10.218;2022-11-15T03:25:32;36.05;;;22.02;;
32693;SDS011;19084;44.716;10.218;2022-11-15T03:28:23;36.03;;;21.98;;
32693;SDS011;19084;44.716;10.218;2022-11-15T03:31:18;32.60;;;20.58;;
32693;SDS011;19084;44.716;10.218;2022-11-15T03:40:42;33.00;;;20.90;;
32693;SDS011;19084;44.716;10.218;2022-11-15T03:46:39;34.55;;;21.60;;
32693;SDS011;19084;44.716;10.218;2022-11-15T03:49:36;33.85;;;20.90;;
32693;SDS011;19084;44.716;10.218;2022-11-15T03:52:32;33.60;;;20.15;;
32693;SDS011;19084;44.716;10.218;2022-11-15T03:55:22;36.92;;;21.73;;
32693;SDS011;19084;44.716;10.218;2022-11-15T03:58:10;31.13;;;20.25;;
32693;SDS011;19084;44.716;10.218;2022-11-15T04:00:58;35.88;;;20.42;;
32693;SDS011;19084;44.716;10.218;2022-11-15T04:03:46;31.50;;;20.17;;
32693;SDS011;19084;44.716;10.218;2022-11-15T04:06:34;30.98;;;19.98;;
32693;SDS011;19084;44.716;10.218;2022-11-15T04:09:22;33.35;;;20.27;;
32693;SDS011;19084;44.716;10.218;2022-11-15T04:12:11;31.52;;;19.13;;
32693;SDS011;19084;44.716;10.218;2022-11-15T04:17:57;29.45;;;19.08;;
32693;SDS011;19084;44.716;10.218;2022-11-15T04:20:45;30.92;;;19.35;;
32693;SDS011;19084;44.716;10.218;2022-11-15T04:23:49;34.97;;;20.08;;
32693;SDS011;19084;44.716;10.218;2022-11-15T04:26:41;32.97;;;20.45;;
32693;SDS011;19084;44.716;10.218;2022-11-15T04:29:31;32.28;;;20.38;;
32693;SDS011;19084;44.716;10.218;2022-11-15T04:32:22;30.13;;;19.63;;
32693;SDS011;19084;44.716;10.218;2022-11-15T04:35:10;31.45;;;20.52;;
32693;SDS011;19084;44.716;10.218;2022-11-15T04:37:58;32.83;;;20.73;;
32693;SDS011;19084;44.716;10.218;2022-11-15T04:40:47;32.40;;;19.95;;
32693;SDS011;19084;44.716;10.218;2022-11-15T04:43:37;34.80;;;19.40;;
32693;SDS011;19084;44.716;10.218;2022-11-15T04:46:25;33.78;;;21.23;;
32693;SDS011;19084;44.716;10.218;2022-11-15T04:49:14;32.38;;;20.92;;
32693;SDS011;19084;44.716;10.218;2022-11-15T04:52:02;32.33;;;19.70;;
32693;SDS011;19084;44.716;10.218;2022-11-15T04:54:51;31.08;;;20.48;;
32693;SDS011;19084;44.716;10.218;2022-11-15T04:57:39;35.63;;;21.70;;
32693;SDS011;19084;44.716;10.218;2022-11-15T05:00:27;35.00;;;21.67;;
32693;SDS011;19084;44.716;10.218;2022-11-15T05:03:16;36.47;;;20.77;;
32693;SDS011;19084;44.716;10.218;2022-11-15T05:06:20;32.03;;;20.48;;
32693;SDS011;19084;44.716;10.218;2022-11-15T05:09:08;36.83;;;22.25;;
32693;SDS011;19084;44.716;10.218;2022-11-15T05:11:57;35.15;;;20.58;;
32693;SDS011;19084;44.716;10.218;2022-11-15T05:14:45;33.80;;;20.77;;
32693;SDS011;19084;44.716;10.218;2022-11-15T05:17:32;33.28;;;20.48;;
32693;SDS011;19084;44.716;10.218;2022-11-15T05:20:21;31.35;;;19.73;;
32693;SDS011;19084;44.716;10.218;2022-11-15T05:23:09;33.78;;;20.83;;
32693;SDS011;19084;44.716;10.218;2022-11-15T05:25:59;35.88;;;20.98;;
32693;SDS011;19084;44.716;10.218;2022-11-15T05:28:58;31.92;;;20.58;;
32693;SDS011;19084;44.716;10.218;2022-11-15T05:31:46;32.17;;;20.25;;
32693;SDS011;19084;44.716;10.218;2022-11-15T05:34:35;32.78;;;20.80;;
32693;SDS011;19084;44.716;10.218;2022-11-15T05:37:23;33.95;;;22.60;;
32693;SDS011;19084;44.716;10.218;2022-11-15T05:40:11;33.30;;;21.40;;
32693;SDS011;19084;44.716;10.218;2022-11-15T05:43:02;31.52;;;20.40;;
32693;SDS011;19084;44.716;10.218;2022-11-15T05:45:54;33.88;;;20.92;;
32693;SDS011;19084;44.716;10.218;2022-11-15T05:48:47;33.97;;;21.88;;
32693;SDS011;19084;44.716;10.218;2022-11-15T05:51:40;35.00;;;22.20;;
32693;SDS011;19084;44.716;10.218;2022-11-15T05:54:30;36.83;;;21.90;;
32693;SDS011;19084;44.716;10.218;2022-11-15T05:57:20;35.05;;;21.05;;
32693;SDS011;19084;44.716;10.218;2022-11-15T06:00:09;39.70;;;22.70;;
32693;SDS011;19084;44.716;10.218;2022-11-15T06:02:57;42.17;;;25.98;;
32693;SDS011;19084;44.716;10.218;2022-11-15T06:05:45;46.72;;;27.98;;
32693;SDS011;19084;44.716;10.218;2022-11-15T06:08:33;43.45;;;26.42;;
32693;SDS011;19084;44.716;10.218;2022-11-15T06:11:24;39.58;;;23.95;;
32693;SDS011;19084;44.716;10.218;2022-11-15T06:14:11;40.28;;;23.67;;
32693;SDS011;19084;44.716;10.218;2022-11-15T06:16:59;39.03;;;23.83;;
32693;SDS011;19084;44.716;10.218;2022-11-15T06:19:51;37.60;;;23.65;;
32693;SDS011;19084;44.716;10.218;2022-11-15T06:22:41;35.13;;;21.88;;
32693;SDS011;19084;44.716;10.218;2022-11-15T06:25:31;38.55;;;23.80;;
32693;SDS011;19084;44.716;10.218;2022-11-15T06:28:19;40.00;;;23.58;;
32693;SDS011;19084;44.716;10.218;2022-11-15T06:31:08;40.00;;;23.45;;
32693;SDS011;19084;44.716;10.218;2022-11-15T06:33:58;40.15;;;24.65;;
32693;SDS011;19084;44.716;10.218;2022-11-15T06:36:47;39.00;;;24.02;;
32693;SDS011;19084;44.716;10.218;2022-11-15T06:39:35;40.47;;;24.38;;
32693;SDS011;19084;44.716;10.218;2022-11-15T06:42:24;40.67;;;24.25;;
32693;SDS011;19084;44.716;10.218;2022-11-15T06:45:11;45.70;;;27.27;;
32693;SDS011;19084;44.716;10.218;2022-11-15T06:48:00;42.15;;;27.00;;
32693;SDS011;19084;44.716;10.218;2022-11-15T06:50:51;44.97;;;26.48;;
32693;SDS011;19084;44.716;10.218;2022-11-15T06:53:40;46.55;;;27.52;;
32693;SDS011;19084;44.716;10.218;2022-11-15T06:56:28;44.90;;;26.55;;
32693;SDS011;19084;44.716;10.218;2022-11-15T06:59:16;45.70;;;26.52;;
32693;SDS011;19084;44.716;10.218;2022-11-15T07:02:04;93.57;;;61.97;;
32693;SDS011;19084;44.716;10.218;2022-11-15T07:04:55;49.75;;;32.42;;
32693;SDS011;19084;44.716;10.218;2022-11-15T07:07:50;49.95;;;29.58;;
32693;SDS011;19084;44.716;10.218;2022-11-15T07:10:41;50.22;;;29.17;;
32693;SDS011;19084;44.716;10.218;2022-11-15T07:13:30;50.35;;;33.22;;
32693;SDS011;19084;44.716;10.218;2022-11-15T07:16:21;50.25;;;31.15;;
32693;SDS011;19084;44.716;10.218;2022-11-15T07:19:10;48.38;;;30.70;;
32693;SDS011;19084;44.716;10.218;2022-11-15T07:21:58;55.33;;;32.65;;
32693;SDS011;19084;44.716;10.218;2022-11-15T07:24:48;58.45;;;35.75;;
32693;SDS011;19084;44.716;10.218;2022-11-15T07:27:38;54.78;;;37.30;;
32693;SDS011;19084;44.716;10.218;2022-11-15T07:30:29;53.83;;;33.95;;
32693;SDS011;19084;44.716;10.218;2022-11-15T07:33:17;54.55;;;32.83;;
32693;SDS011;19084;44.716;10.218;2022-11-15T07:36:05;54.05;;;33.22;;
32693;SDS011;19084;44.716;10.218;2022-11-15T07:38:57;51.60;;;32.10;;
32693;SDS011;19084;44.716;10.218;2022-11-15T07:41:45;49.45;;;30.15;;
32693;SDS011;19084;44.716;10.218;2022-11-15T07:44:37;51.47;;;30.92;;
32693;SDS011;19084;44.716;10.218;2022-11-15T07:47:28;48.97;;;29.55;;
32693;SDS011;19084;44.716;10.218;2022-11-15T07:50:16;49.63;;;30.75;;
32693;SDS011;19084;44.716;10.218;2022-11-15T07:53:05;57.13;;;32.58;;
32693;SDS011;19084;44.716;10.218;2022-11-15T07:55:56;58.35;;;34.30;;
32693;SDS011;19084;44.716;10.218;2022-11-15T07:58:45;53.65;;;33.22;;
32693;SDS011;19084;44.716;10.218;2022-11-15T08:01:33;55.83;;;33.03;;
32693;SDS011;19084;44.716;10.218;2022-11-15T08:04:22;58.33;;;34.30;;
32693;SDS011;19084;44.716;10.218;2022-11-15T08:07:12;57.28;;;34.92;;
32693;SDS011;19084;44.716;10.218;2022-11-15T08:10:00;55.42;;;34.03;;
32693;SDS011;19084;44.716;10.218;2022-11-15T08:12:56;53.35;;;33.00;;
32693;SDS011;19084;44.716;10.218;2022-11-15T08:15:47;55.67;;;32.97;;
32693;SDS011;19084;44.716;10.218;2022-11-15T08:18:44;55.50;;;33.42;;
32693;SDS011;19084;44.716;10.218;2022-11-15T08:21:32;58.78;;;33.33;;
32693;SDS011;19084;44.716;10.218;2022-11-15T08:24:21;56.22;;;32.95;;
32693;SDS011;19084;44.716;10.218;2022-11-15T08:27:09;58.20;;;32.92;;
32693;SDS011;19084;44.716;10.218;2022-11-15T08:30:03;58.47;;;34.05;;
32693;SDS011;19084;44.716;10.218;2022-11-15T08:32:52;59.03;;;34.72;;
32693;SDS011;19084;44.716;10.218;2022-11-15T08:35:44;58.40;;;33.55;;
32693;SDS011;19084;44.716;10.218;2022-11-15T08:38:33;51.53;;;32.03;;
32693;SDS011;19084;44.716;10.218;2022-11-15T08:41:25;61.42;;;35.78;;
32693;SDS011;19084;44.716;10.218;2022-11-15T08:44:19;53.53;;;32.35;;
32693;SDS011;19084;44.716;10.218;2022-11-15T08:47:07;56.85;;;35.42;;
32693;SDS011;19084;44.716;10.218;2022-11-15T08:49:58;56.10;;;33.97;;
32693;SDS011;19084;44.716;10.218;2022-11-15T08:52:47;57.22;;;34.08;;
32693;SDS011;19084;44.716;10.218;2022-11-15T08:55:36;53.00;;;34.50;;
32693;SDS011;19084;44.716;10.218;2022-11-15T08:58:25;51.40;;;32.30;;
32693;SDS011;19084;44.716;10.218;2022-11-15T09:01:15;56.55;;;35.20;;
32693;SDS011;19084;44.716;10.218;2022-11-15T09:04:07;55.78;;;35.80;;
32693;SDS011;19084;44.716;10.218;2022-11-15T09:06:55;64.93;;;39.50;;
32693;SDS011;19084;44.716;10.218;2022-11-15T09:09:44;56.30;;;37.88;;
32693;SDS011;19084;44.716;10.218;2022-11-15T09:12:33;63.25;;;40.05;;
32693;SDS011;19084;44.716;10.218;2022-11-15T09:15:21;61.80;;;38.35;;
32693;SDS011;19084;44.716;10.218;2022-11-15T09:18:09;55.42;;;36.42;;
32693;SDS011;19084;44.716;10.218;2022-11-15T09:20:59;59.65;;;37.65;;
32693;SDS011;19084;44.716;10.218;2022-11-15T09:23:50;59.88;;;37.08;;
32693;SDS011;19084;44.716;10.218;2022-11-15T09:26:39;56.95;;;37.00;;
32693;SDS011;19084;44.716;10.218;2022-11-15T09:29:27;51.47;;;33.22;;
32693;SDS011;19084;44.716;10.218;2022-11-15T09:32:17;53.20;;;34.88;;
32693;SDS011;19084;44.716;10.218;2022-11-15T09:35:06;50.03;;;32.70;;
32693;SDS011;19084;44.716;10.218;2022-11-15T09:37:57;48.17;;;32.75;;
32693;SDS011;19084;44.716;10.218;2022-11-15T09:40:48;51.15;;;34.25;;
32693;SDS011;19084;44.716;10.218;2022-11-15T09:47:05;54.47;;;36.70;;
32693;SDS011;19084;44.716;10.218;2022-11-15T09:50:27;52.78;;;33.38;;
32693;SDS011;19084;44.716;10.218;2022-11-15T09:53:03;54.22;;;35.47;;
32693;SDS011;19084;44.716;10.218;2022-11-15T09:55:47;57.17;;;38.90;;
32693;SDS011;19084;44.716;10.218;2022-11-15T09:58:33;57.17;;;35.20;;
32693;SDS011;19084;44.716;10.218;2022-11-15T10:01:18;54.78;;;34.92;;
32693;SDS011;19084;44.716;10.218;2022-11-15T10:06:45;56.72;;;35.20;;
32693;SDS011;19084;44.716;10.218;2022-11-15T10:09:31;54.30;;;34.58;;
32693;SDS011;19084;44.716;10.218;2022-11-15T10:12:12;53.22;;;34.72;;
32693;SDS011;19084;44.716;10.218;2022-11-15T10:14:46;61.92;;;38.00;;
32693;SDS011;19084;44.716;10.218;2022-11-15T10:20:20;54.90;;;35.15;;
32693;SDS011;19084;44.716;10.218;2022-11-15T10:22:56;55.15;;;34.75;;
32693;SDS011;19084;44.716;10.218;2022-11-15T10:25:33;55.55;;;36.30;;
32693;SDS011;19084;44.716;10.218;2022-11-15T10:28:12;58.60;;;37.40;;
32693;SDS011;19084;44.716;10.218;2022-11-15T10:30:50;57.65;;;36.58;;
32693;SDS011;19084;44.716;10.218;2022-11-15T10:44:02;57.45;;;37.63;;
32693;SDS011;19084;44.716;10.218;2022-11-15T10:46:40;55.38;;;37.00;;
32693;SDS011;19084;44.716;10.218;2022-11-15T10:49:19;50.70;;;33.97;;
32693;SDS011;19084;44.716;10.218;2022-11-15T10:55:01;63.53;;;38.70;;
32693;SDS011;19084;44.716;10.218;2022-11-15T10:57:39;69.65;;;43.67;;
32693;SDS011;19084;44.716;10.218;2022-11-15T11:06:03;57.33;;;36.55;;
32693;SDS011;19084;44.716;10.218;2022-11-15T11:08:39;57.97;;;36.33;;
32693;SDS011;19084;44.716;10.218;2022-11-15T11:11:12;64.68;;;39.40;;
32693;SDS011;19084;44.716;10.218;2022-11-15T11:13:49;59.88;;;36.38;;
32693;SDS011;19084;44.716;10.218;2022-11-15T11:22:16;58.30;;;37.13;;
32693;SDS011;19084;44.716;10.218;2022-11-15T11:25:08;57.15;;;35.50;;
32693;SDS011;19084;44.716;10.218;2022-11-15T11:27:58;59.03;;;37.10;;
32693;SDS011;19084;44.716;10.218;2022-11-15T11:33:46;57.00;;;36.03;;
32693;SDS011;19084;44.716;10.218;2022-11-15T11:36:47;62.95;;;37.13;;
32693;SDS011;19084;44.716;10.218;2022-11-15T11:48:26;62.47;;;36.05;;
32693;SDS011;19084;44.716;10.218;2022-11-15T11:51:15;72.25;;;40.63;;
32693;SDS011;19084;44.716;10.218;2022-11-15T11:53:58;63.03;;;37.88;;
32693;SDS011;19084;44.716;10.218;2022-11-15T11:56:45;72.57;;;41.90;;
32693;SDS011;19084;44.716;10.218;2022-11-15T12:02:12;76.18;;;43.13;;
32693;SDS011;19084;44.716;10.218;2022-11-15T12:04:51;79.63;;;42.70;;
32693;SDS011;19084;44.716;10.218;2022-11-15T12:07:31;62.38;;;38.25;;
32693;SDS011;19084;44.716;10.218;2022-11-15T12:12:55;64.93;;;38.97;;
32693;SDS011;19084;44.716;10.218;2022-11-15T12:15:42;66.53;;;39.92;;
32693;SDS011;19084;44.716;10.218;2022-11-15T12:18:20;69.85;;;39.90;;
32693;SDS011;19084;44.716;10.218;2022-11-15T12:24:00;71.60;;;40.17;;
32693;SDS011;19084;44.716;10.218;2022-11-15T12:26:40;67.38;;;39.78;;
32693;SDS011;19084;44.716;10.218;2022-11-15T12:35:03;65.63;;;38.67;;
32693;SDS011;19084;44.716;10.218;2022-11-15T12:40:20;66.53;;;39.47;;
32693;SDS011;19084;44.716;10.218;2022-11-15T12:42:58;71.82;;;43.67;;
32693;SDS011;19084;44.716;10.218;2022-11-15T12:45:36;67.25;;;41.17;;
32693;SDS011;19084;44.716;10.218;2022-11-15T12:53:30;72.63;;;42.03;;
32693;SDS011;19084;44.716;10.218;2022-11-15T12:58:49;74.68;;;42.80;;
32693;SDS011;19084;44.716;10.218;2022-11-15T13:07:04;70.47;;;40.38;;
32693;SDS011;19084;44.716;10.218;2022-11-15T13:15:00;92.20;;;55.58;;
32693;SDS011;19084;44.716;10.218;2022-11-15T13:17:44;68.80;;;41.17;;
32693;SDS011;19084;44.716;10.218;2022-11-15T13:20:20;70.60;;;40.43;;
32693;SDS011;19084;44.716;10.218;2022-11-15T13:33:57;74.80;;;39.40;;
32693;SDS011;19084;44.716;10.218;2022-11-15T13:36:49;74.85;;;41.13;;
32693;SDS011;19084;44.716;10.218;2022-11-15T13:39:25;93.32;;;59.53;;
32693;SDS011;19084;44.716;10.218;2022-11-15T13:42:10;70.13;;;42.92;;
32693;SDS011;19084;44.716;10.218;2022-11-15T13:44:55;63.08;;;38.20;;
32693;SDS011;19084;44.716;10.218;2022-11-15T13:47:32;67.35;;;39.58;;
32693;SDS011;19084;44.716;10.218;2022-11-15T13:50:05;71.93;;;41.88;;
32693;SDS011;19084;44.716;10.218;2022-11-15T13:52:43;71.65;;;41.33;;
32693;SDS011;19084;44.716;10.218;2022-11-15T13:55:19;71.80;;;40.45;;
32693;SDS011;19084;44.716;10.218;2022-11-15T13:57:55;69.32;;;40.85;;
32693;SDS011;19084;44.716;10.218;2022-11-15T14:03:21;67.05;;;41.13;;
32693;SDS011;19084;44.716;10.218;2022-11-15T14:06:02;70.45;;;41.03;;
32693;SDS011;19084;44.716;10.218;2022-11-15T14:08:39;73.25;;;41.03;;
32693;SDS011;19084;44.716;10.218;2022-11-15T14:16:41;77.10;;;41.13;;
32693;SDS011;19084;44.716;10.218;2022-11-15T14:30:57;79.18;;;43.92;;
32693;SDS011;19084;44.716;10.218;2022-11-15T14:33:33;76.53;;;39.95;;
32693;SDS011;19084;44.716;10.218;2022-11-15T14:38:56;75.20;;;43.80;;
32693;SDS011;19084;44.716;10.218;2022-11-15T14:41:33;65.07;;;37.72;;
32693;SDS011;19084;44.716;10.218;2022-11-15T14:44:10;63.22;;;33.97;;
32693;SDS011;19084;44.716;10.218;2022-11-15T14:46:44;71.57;;;34.90;;
32693;SDS011;19084;44.716;10.218;2022-11-15T14:49:17;56.70;;;31.98;;
32693;SDS011;19084;44.716;10.218;2022-11-15T14:51:50;58.60;;;33.90;;
32693;SDS011;19084;44.716;10.218;2022-11-15T14:54:24;55.17;;;32.75;;
32693;SDS011;19084;44.716;10.218;2022-11-15T14:56:58;55.55;;;30.50;;
32693;SDS011;19084;44.716;10.218;2022-11-15T14:59:32;52.83;;;32.03;;
32693;SDS011;19084;44.716;10.218;2022-11-15T15:04:57;69.20;;;43.67;;
32693;SDS011;19084;44.716;10.218;2022-11-15T15:07:33;61.13;;;36.03;;
32693;SDS011;19084;44.716;10.218;2022-11-15T15:10:07;49.95;;;31.10;;
32693;SDS011;19084;44.716;10.218;2022-11-15T15:13:00;56.58;;;32.85;;
32693;SDS011;19084;44.716;10.218;2022-11-15T15:15:35;51.08;;;28.92;;
32693;SDS011;19084;44.716;10.218;2022-11-15T15:18:09;42.40;;;26.38;;
32693;SDS011;19084;44.716;10.218;2022-11-15T15:20:44;46.83;;;28.63;;
32693;SDS011;19084;44.716;10.218;2022-11-15T15:23:27;44.97;;;27.73;;
32693;SDS011;19084;44.716;10.218;2022-11-15T15:26:03;47.33;;;28.40;;
32693;SDS011;19084;44.716;10.218;2022-11-15T15:28:36;47.35;;;29.05;;
32693;SDS011;19084;44.716;10.218;2022-11-15T15:31:11;48.10;;;29.20;;
32693;SDS011;19084;44.716;10.218;2022-11-15T15:33:45;53.97;;;29.77;;
32693;SDS011;19084;44.716;10.218;2022-11-15T15:36:18;49.67;;;29.98;;
32693;SDS011;19084;44.716;10.218;2022-11-15T15:38:54;48.20;;;28.95;;
32693;SDS011;19084;44.716;10.218;2022-11-15T15:41:27;47.40;;;28.25;;
32693;SDS011;19084;44.716;10.218;2022-11-15T15:44:01;45.67;;;27.58;;
32693;SDS011;19084;44.716;10.218;2022-11-15T15:46:34;46.40;;;27.85;;
32693;SDS011;19084;44.716;10.218;2022-11-15T15:49:08;48.75;;;28.95;;
32693;SDS011;19084;44.716;10.218;2022-11-15T15:51:42;49.90;;;29.75;;
32693;SDS011;19084;44.716;10.218;2022-11-15T15:54:15;48.65;;;29.40;;
32693;SDS011;19084;44.716;10.218;2022-11-15T15:56:48;49.40;;;30.33;;
32693;SDS011;19084;44.716;10.218;2022-11-15T15:59:27;45.90;;;28.77;;
32693;SDS011;19084;44.716;10.218;2022-11-15T16:02:01;47.85;;;28.58;;
32693;SDS011;19084;44.716;10.218;2022-11-15T16:04:34;50.40;;;28.50;;
32693;SDS011;19084;44.716;10.218;2022-11-15T16:07:12;45.40;;;28.10;;
32693;SDS011;19084;44.716;10.218;2022-11-15T16:09:50;49.70;;;28.10;;
32693;SDS011;19084;44.716;10.218;2022-11-15T16:12:34;46.92;;;28.83;;
32693;SDS011;19084;44.716;10.218;2022-11-15T16:15:07;55.47;;;28.98;;
32693;SDS011;19084;44.716;10.218;2022-11-15T16:17:46;50.03;;;29.30;;
32693;SDS011;19084;44.716;10.218;2022-11-15T16:20:30;51.63;;;30.40;;
32693;SDS011;19084;44.716;10.218;2022-11-15T16:23:06;48.13;;;30.60;;
32693;SDS011;19084;44.716;10.218;2022-11-15T16:25:43;47.90;;;30.05;;
32693;SDS011;19084;44.716;10.218;2022-11-15T16:31:00;50.25;;;30.77;;
32693;SDS011;19084;44.716;10.218;2022-11-15T16:33:35;53.15;;;30.52;;
32693;SDS011;19084;44.716;10.218;2022-11-15T16:39:02;53.17;;;31.60;;
32693;SDS011;19084;44.716;10.218;2022-11-15T16:41:36;56.53;;;32.25;;
32693;SDS011;19084;44.716;10.218;2022-11-15T16:44:09;53.80;;;30.88;;
32693;SDS011;19084;44.716;10.218;2022-11-15T16:46:42;62.28;;;35.08;;
32693;SDS011;19084;44.716;10.218;2022-11-15T16:49:17;50.25;;;31.75;;
32693;SDS011;19084;44.716;10.218;2022-11-15T16:51:53;56.90;;;32.97;;
32693;SDS011;19084;44.716;10.218;2022-11-15T16:54:26;56.65;;;33.65;;
32693;SDS011;19084;44.716;10.218;2022-11-15T16:57:00;54.05;;;32.42;;
32693;SDS011;19084;44.716;10.218;2022-11-15T16:59:36;56.45;;;32.22;;
32693;SDS011;19084;44.716;10.218;2022-11-15T17:02:11;51.70;;;32.88;;
32693;SDS011;19084;44.716;10.218;2022-11-15T17:04:46;60.67;;;34.25;;
32693;SDS011;19084;44.716;10.218;2022-11-15T17:07:19;55.35;;;32.97;;
32693;SDS011;19084;44.716;10.218;2022-11-15T17:12:28;61.28;;;34.28;;
32693;SDS011;19084;44.716;10.218;2022-11-15T17:15:02;63.78;;;39.03;;
32693;SDS011;19084;44.716;10.218;2022-11-15T17:17:35;53.53;;;32.58;;
32693;SDS011;19084;44.716;10.218;2022-11-15T17:20:13;54.63;;;32.58;;
32693;SDS011;19084;44.716;10.218;2022-11-15T17:22:49;63.92;;;34.80;;
32693;SDS011;19084;44.716;10.218;2022-11-15T17:25:23;54.85;;;34.13;;
32693;SDS011;19084;44.716;10.218;2022-11-15T17:27:56;65.50;;;35.53;;
32693;SDS011;19084;44.716;10.218;2022-11-15T17:30:29;65.60;;;35.17;;
32693;SDS011;19084;44.716;10.218;2022-11-15T17:33:02;58.30;;;34.25;;
32693;SDS011;19084;44.716;10.218;2022-11-15T17:35:36;61.38;;;33.53;;
32693;SDS011;19084;44.716;10.218;2022-11-15T17:38:10;60.00;;;34.28;;
32693;SDS011;19084;44.716;10.218;2022-11-15T17:40:44;56.95;;;34.28;;
32693;SDS011;19084;44.716;10.218;2022-11-15T17:43:16;60.05;;;34.28;;
32693;SDS011;19084;44.716;10.218;2022-11-15T17:45:49;77.47;;;38.85;;
32693;SDS011;19084;44.716;10.218;2022-11-15T17:48:22;63.47;;;36.15;;
32693;SDS011;19084;44.716;10.218;2022-11-15T17:50:56;56.10;;;33.17;;
32693;SDS011;19084;44.716;10.218;2022-11-15T17:53:33;68.88;;;34.83;;
32693;SDS011;19084;44.716;10.218;2022-11-15T17:56:10;53.45;;;32.00;;
32693;SDS011;19084;44.716;10.218;2022-11-15T17:58:46;64.70;;;37.78;;
32693;SDS011;19084;44.716;10.218;2022-11-15T18:01:24;73.15;;;37.58;;
32693;SDS011;19084;44.716;10.218;2022-11-15T18:03:59;60.35;;;35.97;;
32693;SDS011;19084;44.716;10.218;2022-11-15T18:06:34;71.45;;;36.05;;
32693;SDS011;19084;44.716;10.218;2022-11-15T18:09:07;61.97;;;35.70;;
32693;SDS011;19084;44.716;10.218;2022-11-15T18:11:41;63.63;;;37.70;;
32693;SDS011;19084;44.716;10.218;2022-11-15T18:14:18;61.17;;;35.85;;
32693;SDS011;19084;44.716;10.218;2022-11-15T18:16:52;69.00;;;36.78;;
32693;SDS011;19084;44.716;10.218;2022-11-15T18:19:26;67.03;;;36.85;;
32693;SDS011;19084;44.716;10.218;2022-11-15T18:21:59;63.00;;;36.10;;
32693;SDS011;19084;44.716;10.218;2022-11-15T18:24:34;76.32;;;37.03;;
32693;SDS011;19084;44.716;10.218;2022-11-15T18:27:10;70.28;;;37.25;;
32693;SDS011;19084;44.716;10.218;2022-11-15T18:29:42;57.58;;;34.25;;
32693;SDS011;19084;44.716;10.218;2022-11-15T18:32:16;65.43;;;35.53;;